sensor_id;sensor_type;location;lat;lon;timestamp;P1;durP1;ratioP1;P2;durP2;ratioP2
20348;SDS011;10332;50.208;18.988;2022-09-09T00:00:13;10.70;;;9.65;;
20348;SDS011;10332;50.208;18.988;2022-09-09T00:03:19;10.75;;;9.27;;
20348;SDS011;10332;50.208;18.988;2022-09-09T00:06:02;12.57;;;10.88;;
20348;SDS011;10332;50.208;18.988;2022-09-09T00:08:53;11.98;;;10.75;;
20348;SDS011;10332;50.208;18.988;2022-09-09T00:11:51;13.00;;;11.38;;
20348;SDS011;10332;50.208;18.988;2022-09-09T00:17:58;14.90;;;11.90;;
20348;SDS011;10332;50.208;18.988;2022-09-09T00:20:54;15.57;;;12.57;;
20348;SDS011;10332;50.208;18.988;2022-09-09T00:23:38;14.85;;;12.73;;
20348;SDS011;10332;50.208;18.988;2022-09-09T00:28:52;11.10;;;9.90;;
20348;SDS011;10332;50.208;18.988;2022-09-09T00:31:34;15.60;;;13.10;;
20348;SDS011;10332;50.208;18.988;2022-09-09T00:34:09;14.77;;;11.85;;
20348;SDS011;10332;50.208;18.988;2022-09-09T00:36:51;13.00;;;11.30;;
20348;SDS011;10332;50.208;18.988;2022-09-09T00:48:21;15.23;;;12.63;;
20348;SDS011;10332;50.208;18.988;2022-09-09T00:51:08;14.48;;;12.02;;
20348;SDS011;10332;50.208;18.988;2022-09-09T00:59:56;15.40;;;13.32;;
20348;SDS011;10332;50.208;18.988;2022-09-09T01:09:07;17.10;;;15.18;;
20348;SDS011;10332;50.208;18.988;2022-09-09T01:12:03;18.20;;;13.85;;
20348;SDS011;10332;50.208;18.988;2022-09-09T01:17:08;17.55;;;14.25;;
20348;SDS011;10332;50.208;18.988;2022-09-09T01:20:02;19.80;;;16.50;;
20348;SDS011;10332;50.208;18.988;2022-09-09T01:23:12;16.67;;;12.85;;
20348;SDS011;10332;50.208;18.988;2022-09-09T01:26:08;15.18;;;12.45;;
20348;SDS011;10332;50.208;18.988;2022-09-09T01:28:46;13.23;;;11.82;;
20348;SDS011;10332;50.208;18.988;2022-09-09T01:31:20;15.10;;;12.20;;
20348;SDS011;10332;50.208;18.988;2022-09-09T01:33:56;13.77;;;11.23;;
20348;SDS011;10332;50.208;18.988;2022-09-09T01:36:26;11.15;;;10.05;;
20348;SDS011;10332;50.208;18.988;2022-09-09T01:39:07;12.18;;;10.57;;
20348;SDS011;10332;50.208;18.988;2022-09-09T01:41:35;13.38;;;11.80;;
20348;SDS011;10332;50.208;18.988;2022-09-09T01:44:03;12.85;;;10.43;;
20348;SDS011;10332;50.208;18.988;2022-09-09T01:46:34;12.50;;;10.70;;
20348;SDS011;10332;50.208;18.988;2022-09-09T01:49:02;13.25;;;11.18;;
20348;SDS011;10332;50.208;18.988;2022-09-09T01:51:33;14.40;;;12.32;;
20348;SDS011;10332;50.208;18.988;2022-09-09T01:54:03;12.13;;;10.93;;
20348;SDS011;10332;50.208;18.988;2022-09-09T01:56:44;12.02;;;10.45;;
20348;SDS011;10332;50.208;18.988;2022-09-09T01:59:34;14.70;;;12.63;;
20348;SDS011;10332;50.208;18.988;2022-09-09T02:02:36;11.45;;;10.27;;
20348;SDS011;10332;50.208;18.988;2022-09-09T02:08:11;13.90;;;11.85;;
20348;SDS011;10332;50.208;18.988;2022-09-09T02:13:22;13.05;;;10.68;;
20348;SDS011;10332;50.208;18.988;2022-09-09T02:15:53;13.93;;;12.35;;
20348;SDS011;10332;50.208;18.988;2022-09-09T02:18:30;11.85;;;10.63;;
20348;SDS011;10332;50.208;18.988;2022-09-09T02:21:06;15.02;;;11.43;;
20348;SDS011;10332;50.208;18.988;2022-09-09T02:23:38;12.73;;;11.43;;
20348;SDS011;10332;50.208;18.988;2022-09-09T02:26:10;12.38;;;10.75;;
20348;SDS011;10332;50.208;18.988;2022-09-09T02:28:49;14.07;;;12.00;;
20348;SDS011;10332;50.208;18.988;2022-09-09T02:31:22;11.75;;;10.55;;
20348;SDS011;10332;50.208;18.988;2022-09-09T02:33:53;11.68;;;10.48;;
20348;SDS011;10332;50.208;18.988;2022-09-09T02:36:26;13.35;;;11.93;;
20348;SDS011;10332;50.208;18.988;2022-09-09T02:38:59;14.18;;;12.18;;
20348;SDS011;10332;50.208;18.988;2022-09-09T02:41:35;15.77;;;13.63;;
20348;SDS011;10332;50.208;18.988;2022-09-09T02:44:13;14.23;;;12.60;;
20348;SDS011;10332;50.208;18.988;2022-09-09T02:55:38;13.25;;;11.88;;
20348;SDS011;10332;50.208;18.988;2022-09-09T02:58:24;14.65;;;12.88;;
20348;SDS011;10332;50.208;18.988;2022-09-09T03:00:52;12.73;;;11.43;;
20348;SDS011;10332;50.208;18.988;2022-09-09T03:03:20;15.32;;;13.73;;
20348;SDS011;10332;50.208;18.988;2022-09-09T03:05:48;12.93;;;11.63;;
20348;SDS011;10332;50.208;18.988;2022-09-09T03:08:16;13.60;;;12.20;;
20348;SDS011;10332;50.208;18.988;2022-09-09T03:10:43;11.07;;;9.95;;
20348;SDS011;10332;50.208;18.988;2022-09-09T03:13:11;13.68;;;11.60;;
20348;SDS011;10332;50.208;18.988;2022-09-09T03:15:41;14.68;;;13.13;;
20348;SDS011;10332;50.208;18.988;2022-09-09T03:18:09;15.88;;;13.75;;
20348;SDS011;10332;50.208;18.988;2022-09-09T03:20:37;15.45;;;13.25;;
20348;SDS011;10332;50.208;18.988;2022-09-09T03:23:04;15.18;;;12.20;;
20348;SDS011;10332;50.208;18.988;2022-09-09T03:25:31;13.40;;;11.88;;
20348;SDS011;10332;50.208;18.988;2022-09-09T03:28:00;14.30;;;12.80;;
20348;SDS011;10332;50.208;18.988;2022-09-09T03:30:28;14.80;;;12.60;;
20348;SDS011;10332;50.208;18.988;2022-09-09T03:32:55;14.32;;;12.30;;
20348;SDS011;10332;50.208;18.988;2022-09-09T03:35:23;15.82;;;13.23;;
20348;SDS011;10332;50.208;18.988;2022-09-09T03:37:51;14.07;;;12.35;;
20348;SDS011;10332;50.208;18.988;2022-09-09T03:40:18;17.50;;;14.27;;
20348;SDS011;10332;50.208;18.988;2022-09-09T03:42:46;14.65;;;12.57;;
20348;SDS011;10332;50.208;18.988;2022-09-09T03:45:15;14.60;;;12.77;;
20348;SDS011;10332;50.208;18.988;2022-09-09T03:47:43;17.15;;;14.45;;
20348;SDS011;10332;50.208;18.988;2022-09-09T03:50:10;14.48;;;11.48;;
20348;SDS011;10332;50.208;18.988;2022-09-09T03:52:39;16.63;;;13.70;;
20348;SDS011;10332;50.208;18.988;2022-09-09T03:55:08;15.57;;;11.75;;
20348;SDS011;10332;50.208;18.988;2022-09-09T03:57:36;16.50;;;13.60;;
20348;SDS011;10332;50.208;18.988;2022-09-09T04:00:05;13.05;;;11.30;;
20348;SDS011;10332;50.208;18.988;2022-09-09T04:02:34;13.38;;;11.93;;
20348;SDS011;10332;50.208;18.988;2022-09-09T04:05:01;14.25;;;10.93;;
20348;SDS011;10332;50.208;18.988;2022-09-09T04:07:29;14.95;;;12.77;;
20348;SDS011;10332;50.208;18.988;2022-09-09T04:09:56;17.85;;;14.07;;
20348;SDS011;10332;50.208;18.988;2022-09-09T04:12:23;18.13;;;13.93;;
20348;SDS011;10332;50.208;18.988;2022-09-09T04:14:50;14.75;;;12.48;;
20348;SDS011;10332;50.208;18.988;2022-09-09T04:17:18;18.70;;;14.30;;
20348;SDS011;10332;50.208;18.988;2022-09-09T04:19:46;17.65;;;14.40;;
20348;SDS011;10332;50.208;18.988;2022-09-09T04:22:13;17.95;;;13.80;;
20348;SDS011;10332;50.208;18.988;2022-09-09T04:24:40;16.02;;;13.32;;
20348;SDS011;10332;50.208;18.988;2022-09-09T04:27:14;15.57;;;13.45;;
20348;SDS011;10332;50.208;18.988;2022-09-09T04:29:41;16.67;;;13.02;;
20348;SDS011;10332;50.208;18.988;2022-09-09T04:32:08;13.80;;;11.63;;
20348;SDS011;10332;50.208;18.988;2022-09-09T04:34:36;14.02;;;11.65;;
20348;SDS011;10332;50.208;18.988;2022-09-09T04:37:03;16.65;;;14.20;;
20348;SDS011;10332;50.208;18.988;2022-09-09T04:39:31;16.73;;;13.30;;
20348;SDS011;10332;50.208;18.988;2022-09-09T04:41:58;16.27;;;14.30;;
20348;SDS011;10332;50.208;18.988;2022-09-09T04:44:25;17.10;;;12.63;;
20348;SDS011;10332;50.208;18.988;2022-09-09T04:46:52;16.00;;;14.05;;
20348;SDS011;10332;50.208;18.988;2022-09-09T04:49:20;17.85;;;14.18;;
20348;SDS011;10332;50.208;18.988;2022-09-09T04:51:48;15.82;;;12.75;;
20348;SDS011;10332;50.208;18.988;2022-09-09T04:54:16;15.18;;;12.77;;
20348;SDS011;10332;50.208;18.988;2022-09-09T04:56:43;15.10;;;12.70;;
20348;SDS011;10332;50.208;18.988;2022-09-09T04:59:10;29.13;;;14.98;;
20348;SDS011;10332;50.208;18.988;2022-09-09T05:01:37;20.52;;;15.88;;
20348;SDS011;10332;50.208;18.988;2022-09-09T05:04:05;18.98;;;15.30;;
20348;SDS011;10332;50.208;18.988;2022-09-09T05:06:33;18.63;;;13.48;;
20348;SDS011;10332;50.208;18.988;2022-09-09T05:09:02;20.45;;;13.15;;
20348;SDS011;10332;50.208;18.988;2022-09-09T05:11:31;21.13;;;16.23;;
20348;SDS011;10332;50.208;18.988;2022-09-09T05:14:02;20.40;;;14.48;;
20348;SDS011;10332;50.208;18.988;2022-09-09T05:16:30;23.05;;;14.77;;
20348;SDS011;10332;50.208;18.988;2022-09-09T05:18:58;17.80;;;13.60;;
20348;SDS011;10332;50.208;18.988;2022-09-09T05:21:25;17.50;;;13.93;;
20348;SDS011;10332;50.208;18.988;2022-09-09T05:23:53;17.40;;;14.55;;
20348;SDS011;10332;50.208;18.988;2022-09-09T05:26:21;19.30;;;12.23;;
20348;SDS011;10332;50.208;18.988;2022-09-09T05:28:49;12.48;;;10.27;;
20348;SDS011;10332;50.208;18.988;2022-09-09T05:31:17;19.73;;;15.40;;
20348;SDS011;10332;50.208;18.988;2022-09-09T05:33:47;19.38;;;13.57;;
20348;SDS011;10332;50.208;18.988;2022-09-09T05:36:17;14.52;;;12.90;;
20348;SDS011;10332;50.208;18.988;2022-09-09T05:38:49;17.25;;;13.95;;
20348;SDS011;10332;50.208;18.988;2022-09-09T05:41:17;15.90;;;13.38;;
20348;SDS011;10332;50.208;18.988;2022-09-09T05:43:45;16.48;;;12.88;;
20348;SDS011;10332;50.208;18.988;2022-09-09T05:46:20;16.52;;;13.75;;
20348;SDS011;10332;50.208;18.988;2022-09-09T05:48:49;14.10;;;11.93;;
20348;SDS011;10332;50.208;18.988;2022-09-09T05:51:19;13.05;;;10.95;;
20348;SDS011;10332;50.208;18.988;2022-09-09T05:53:50;12.00;;;9.95;;
20348;SDS011;10332;50.208;18.988;2022-09-09T05:56:19;15.77;;;11.63;;
20348;SDS011;10332;50.208;18.988;2022-09-09T05:58:51;13.13;;;11.27;;
20348;SDS011;10332;50.208;18.988;2022-09-09T06:01:24;14.77;;;9.85;;
20348;SDS011;10332;50.208;18.988;2022-09-09T06:04:00;15.68;;;11.65;;
20348;SDS011;10332;50.208;18.988;2022-09-09T06:06:33;13.05;;;11.05;;
20348;SDS011;10332;50.208;18.988;2022-09-09T06:09:03;10.93;;;9.55;;
20348;SDS011;10332;50.208;18.988;2022-09-09T06:11:36;14.90;;;10.95;;
20348;SDS011;10332;50.208;18.988;2022-09-09T06:14:06;11.35;;;9.65;;
20348;SDS011;10332;50.208;18.988;2022-09-09T06:16:34;9.25;;;8.23;;
20348;SDS011;10332;50.208;18.988;2022-09-09T06:19:04;12.65;;;9.35;;
20348;SDS011;10332;50.208;18.988;2022-09-09T06:21:35;10.82;;;8.38;;
20348;SDS011;10332;50.208;18.988;2022-09-09T06:24:04;10.88;;;9.38;;
20348;SDS011;10332;50.208;18.988;2022-09-09T06:26:32;13.48;;;9.40;;
20348;SDS011;10332;50.208;18.988;2022-09-09T06:29:03;9.57;;;8.23;;
20348;SDS011;10332;50.208;18.988;2022-09-09T06:31:32;10.35;;;8.43;;
20348;SDS011;10332;50.208;18.988;2022-09-09T06:34:04;11.95;;;10.05;;
20348;SDS011;10332;50.208;18.988;2022-09-09T06:36:35;10.95;;;8.27;;
20348;SDS011;10332;50.208;18.988;2022-09-09T06:39:05;11.65;;;8.57;;
20348;SDS011;10332;50.208;18.988;2022-09-09T06:41:40;14.20;;;8.75;;
20348;SDS011;10332;50.208;18.988;2022-09-09T06:44:09;10.70;;;8.35;;
20348;SDS011;10332;50.208;18.988;2022-09-09T06:46:38;11.30;;;8.90;;
20348;SDS011;10332;50.208;18.988;2022-09-09T06:49:07;11.15;;;8.82;;
20348;SDS011;10332;50.208;18.988;2022-09-09T06:51:37;9.77;;;8.48;;
20348;SDS011;10332;50.208;18.988;2022-09-09T06:54:11;12.27;;;8.63;;
20348;SDS011;10332;50.208;18.988;2022-09-09T06:56:39;13.27;;;9.65;;
20348;SDS011;10332;50.208;18.988;2022-09-09T06:59:10;8.20;;;7.20;;
20348;SDS011;10332;50.208;18.988;2022-09-09T07:01:39;10.60;;;6.03;;
20348;SDS011;10332;50.208;18.988;2022-09-09T07:04:17;7.47;;;6.03;;
20348;SDS011;10332;50.208;18.988;2022-09-09T07:06:45;9.48;;;5.97;;
20348;SDS011;10332;50.208;18.988;2022-09-09T07:09:14;4.85;;;4.10;;
20348;SDS011;10332;50.208;18.988;2022-09-09T07:11:43;7.15;;;5.55;;
20348;SDS011;10332;50.208;18.988;2022-09-09T07:14:14;5.53;;;4.70;;
20348;SDS011;10332;50.208;18.988;2022-09-09T07:16:42;7.60;;;4.47;;
20348;SDS011;10332;50.208;18.988;2022-09-09T07:19:12;6.30;;;4.30;;
20348;SDS011;10332;50.208;18.988;2022-09-09T07:21:41;7.47;;;3.15;;
20348;SDS011;10332;50.208;18.988;2022-09-09T07:24:10;4.00;;;3.40;;
20348;SDS011;10332;50.208;18.988;2022-09-09T07:26:39;5.80;;;3.28;;
20348;SDS011;10332;50.208;18.988;2022-09-09T07:29:07;3.35;;;3.00;;
20348;SDS011;10332;50.208;18.988;2022-09-09T07:31:37;3.67;;;2.72;;
20348;SDS011;10332;50.208;18.988;2022-09-09T07:34:06;4.80;;;4.18;;
20348;SDS011;10332;50.208;18.988;2022-09-09T07:36:35;4.32;;;3.00;;
20348;SDS011;10332;50.208;18.988;2022-09-09T07:39:06;7.35;;;5.07;;
20348;SDS011;10332;50.208;18.988;2022-09-09T07:41:38;4.43;;;3.30;;
20348;SDS011;10332;50.208;18.988;2022-09-09T07:44:12;5.53;;;5.03;;
20348;SDS011;10332;50.208;18.988;2022-09-09T07:46:49;4.22;;;2.80;;
20348;SDS011;10332;50.208;18.988;2022-09-09T07:49:17;4.82;;;3.03;;
20348;SDS011;10332;50.208;18.988;2022-09-09T07:51:51;5.50;;;5.00;;
20348;SDS011;10332;50.208;18.988;2022-09-09T07:54:19;6.78;;;4.50;;
20348;SDS011;10332;50.208;18.988;2022-09-09T07:56:50;4.35;;;3.83;;
20348;SDS011;10332;50.208;18.988;2022-09-09T07:59:21;15.10;;;13.55;;
20348;SDS011;10332;50.208;18.988;2022-09-09T08:01:49;4.93;;;4.50;;
20348;SDS011;10332;50.208;18.988;2022-09-09T08:04:22;2.90;;;2.40;;
20348;SDS011;10332;50.208;18.988;2022-09-09T08:06:53;4.05;;;2.50;;
20348;SDS011;10332;50.208;18.988;2022-09-09T08:09:24;5.03;;;3.75;;
20348;SDS011;10332;50.208;18.988;2022-09-09T08:11:53;1.73;;;1.60;;
20348;SDS011;10332;50.208;18.988;2022-09-09T08:14:26;5.10;;;4.53;;
20348;SDS011;10332;50.208;18.988;2022-09-09T08:16:54;2.55;;;2.35;;
20348;SDS011;10332;50.208;18.988;2022-09-09T08:19:22;7.00;;;5.68;;
20348;SDS011;10332;50.208;18.988;2022-09-09T08:21:50;15.85;;;14.20;;
20348;SDS011;10332;50.208;18.988;2022-09-09T08:24:17;3.88;;;3.47;;
20348;SDS011;10332;50.208;18.988;2022-09-09T08:26:47;2.17;;;1.73;;
20348;SDS011;10332;50.208;18.988;2022-09-09T08:29:16;2.58;;;2.03;;
20348;SDS011;10332;50.208;18.988;2022-09-09T08:31:46;5.57;;;3.58;;
20348;SDS011;10332;50.208;18.988;2022-09-09T08:34:17;3.47;;;2.67;;
20348;SDS011;10332;50.208;18.988;2022-09-09T08:36:46;2.85;;;2.30;;
20348;SDS011;10332;50.208;18.988;2022-09-09T08:39:17;2.13;;;1.90;;
20348;SDS011;10332;50.208;18.988;2022-09-09T08:50:35;2.15;;;1.48;;
20348;SDS011;10332;50.208;18.988;2022-09-09T08:55:39;5.40;;;4.65;;
20348;SDS011;10332;50.208;18.988;2022-09-09T08:58:35;6.30;;;4.65;;
20348;SDS011;10332;50.208;18.988;2022-09-09T09:10:02;2.10;;;1.50;;
20348;SDS011;10332;50.208;18.988;2022-09-09T09:12:56;4.15;;;3.75;;
20348;SDS011;10332;50.208;18.988;2022-09-09T09:15:25;4.03;;;3.63;;
20348;SDS011;10332;50.208;18.988;2022-09-09T09:18:03;3.95;;;3.13;;
20348;SDS011;10332;50.208;18.988;2022-09-09T09:20:39;1.90;;;1.70;;
20348;SDS011;10332;50.208;18.988;2022-09-09T09:23:17;9.55;;;8.55;;
20348;SDS011;10332;50.208;18.988;2022-09-09T09:25:52;6.45;;;5.72;;
20348;SDS011;10332;50.208;18.988;2022-09-09T09:28:27;2.97;;;2.40;;
20348;SDS011;10332;50.208;18.988;2022-09-09T09:31:01;3.97;;;3.00;;
20348;SDS011;10332;50.208;18.988;2022-09-09T09:36:20;5.40;;;4.40;;
20348;SDS011;10332;50.208;18.988;2022-09-09T09:39:01;2.85;;;2.10;;
20348;SDS011;10332;50.208;18.988;2022-09-09T09:41:52;2.63;;;2.00;;
20348;SDS011;10332;50.208;18.988;2022-09-09T09:44:27;2.55;;;2.05;;
20348;SDS011;10332;50.208;18.988;2022-09-09T09:47:07;1.50;;;1.40;;
20348;SDS011;10332;50.208;18.988;2022-09-09T09:49:56;3.17;;;2.70;;
20348;SDS011;10332;50.208;18.988;2022-09-09T09:52:27;5.97;;;5.38;;
20348;SDS011;10332;50.208;18.988;2022-09-09T09:54:57;1.77;;;1.60;;
20348;SDS011;10332;50.208;18.988;2022-09-09T09:57:33;2.50;;;2.13;;
20348;SDS011;10332;50.208;18.988;2022-09-09T10:00:16;2.42;;;1.27;;
20348;SDS011;10332;50.208;18.988;2022-09-09T10:02:49;1.52;;;0.90;;
20348;SDS011;10332;50.208;18.988;2022-09-09T10:05:23;2.08;;;1.30;;
20348;SDS011;10332;50.208;18.988;2022-09-09T10:08:05;9.05;;;8.10;;
20348;SDS011;10332;50.208;18.988;2022-09-09T10:19:03;3.17;;;2.75;;
20348;SDS011;10332;50.208;18.988;2022-09-09T10:27:31;2.88;;;2.58;;
20348;SDS011;10332;50.208;18.988;2022-09-09T10:30:55;1.45;;;1.00;;
20348;SDS011;10332;50.208;18.988;2022-09-09T10:33:49;2.28;;;1.50;;
20348;SDS011;10332;50.208;18.988;2022-09-09T10:36:24;33.13;;;29.65;;
20348;SDS011;10332;50.208;18.988;2022-09-09T10:39:06;6.35;;;5.75;;
20348;SDS011;10332;50.208;18.988;2022-09-09T10:42:08;10.65;;;9.65;;
20348;SDS011;10332;50.208;18.988;2022-09-09T10:53:35;1.38;;;1.25;;
20348;SDS011;10332;50.208;18.988;2022-09-09T10:56:33;1.75;;;1.65;;
20348;SDS011;10332;50.208;18.988;2022-09-09T10:59:06;1.88;;;1.20;;
20348;SDS011;10332;50.208;18.988;2022-09-09T11:01:48;2.78;;;1.83;;
20348;SDS011;10332;50.208;18.988;2022-09-09T11:04:55;2.70;;;1.20;;
20348;SDS011;10332;50.208;18.988;2022-09-09T11:07:42;0.93;;;0.80;;
20348;SDS011;10332;50.208;18.988;2022-09-09T11:10:24;2.10;;;1.90;;
20348;SDS011;10332;50.208;18.988;2022-09-09T11:13:19;2.05;;;1.55;;
20348;SDS011;10332;50.208;18.988;2022-09-09T11:25:09;0.80;;;0.80;;
20348;SDS011;10332;50.208;18.988;2022-09-09T11:42:48;1.08;;;0.82;;
20348;SDS011;10332;50.208;18.988;2022-09-09T11:45:50;0.50;;;0.50;;
20348;SDS011;10332;50.208;18.988;2022-09-09T11:51:05;0.38;;;0.38;;
20348;SDS011;10332;50.208;18.988;2022-09-09T11:53:52;1.33;;;0.52;;
20348;SDS011;10332;50.208;18.988;2022-09-09T11:56:32;0.80;;;0.80;;
20348;SDS011;10332;50.208;18.988;2022-09-09T11:59:25;0.70;;;0.60;;
20348;SDS011;10332;50.208;18.988;2022-09-09T12:02:14;0.40;;;0.40;;
20348;SDS011;10332;50.208;18.988;2022-09-09T12:13:18;2.88;;;1.92;;
20348;SDS011;10332;50.208;18.988;2022-09-09T12:15:53;7.97;;;7.10;;
20348;SDS011;10332;50.208;18.988;2022-09-09T12:21:15;1.55;;;0.70;;
20348;SDS011;10332;50.208;18.988;2022-09-09T12:24:12;0.63;;;0.60;;
20348;SDS011;10332;50.208;18.988;2022-09-09T12:27:07;2.80;;;2.60;;
20348;SDS011;10332;50.208;18.988;2022-09-09T12:29:53;2.20;;;2.00;;
20348;SDS011;10332;50.208;18.988;2022-09-09T12:32:28;1.42;;;0.63;;
20348;SDS011;10332;50.208;18.988;2022-09-09T12:34:59;0.30;;;0.30;;
20348;SDS011;10332;50.208;18.988;2022-09-09T12:37:39;0.57;;;0.50;;
20348;SDS011;10332;50.208;18.988;2022-09-09T12:40:19;1.00;;;0.80;;
20348;SDS011;10332;50.208;18.988;2022-09-09T12:42:49;0.93;;;0.50;;
20348;SDS011;10332;50.208;18.988;2022-09-09T12:45:21;0.95;;;0.68;;
20348;SDS011;10332;50.208;18.988;2022-09-09T12:48:04;0.60;;;0.38;;
20348;SDS011;10332;50.208;18.988;2022-09-09T12:50:43;0.60;;;0.60;;
20348;SDS011;10332;50.208;18.988;2022-09-09T12:56:22;6.95;;;6.35;;
20348;SDS011;10332;50.208;18.988;2022-09-09T12:58:56;4.50;;;4.10;;
20348;SDS011;10332;50.208;18.988;2022-09-09T13:01:28;5.40;;;4.90;;
20348;SDS011;10332;50.208;18.988;2022-09-09T13:04:00;6.53;;;5.93;;
20348;SDS011;10332;50.208;18.988;2022-09-09T13:06:29;1.80;;;1.70;;
20348;SDS011;10332;50.208;18.988;2022-09-09T13:08:58;0.75;;;0.63;;
20348;SDS011;10332;50.208;18.988;2022-09-09T13:11:49;1.45;;;1.00;;
20348;SDS011;10332;50.208;18.988;2022-09-09T13:14:19;0.95;;;0.90;;
20348;SDS011;10332;50.208;18.988;2022-09-09T13:17:06;1.38;;;0.80;;
20348;SDS011;10332;50.208;18.988;2022-09-09T13:19:46;0.93;;;0.60;;
20348;SDS011;10332;50.208;18.988;2022-09-09T13:22:30;0.80;;;0.60;;
20348;SDS011;10332;50.208;18.988;2022-09-09T13:25:04;1.05;;;0.95;;
20348;SDS011;10332;50.208;18.988;2022-09-09T13:27:33;1.05;;;0.80;;
20348;SDS011;10332;50.208;18.988;2022-09-09T13:30:22;1.80;;;0.95;;
20348;SDS011;10332;50.208;18.988;2022-09-09T13:35:45;0.70;;;0.70;;
20348;SDS011;10332;50.208;18.988;2022-09-09T13:38:16;0.57;;;0.57;;
20348;SDS011;10332;50.208;18.988;2022-09-09T13:43:42;2.65;;;2.17;;
20348;SDS011;10332;50.208;18.988;2022-09-09T13:46:35;37.17;;;33.22;;
20348;SDS011;10332;50.208;18.988;2022-09-09T13:54:13;7.18;;;5.90;;
20348;SDS011;10332;50.208;18.988;2022-09-09T13:56:47;0.88;;;0.60;;
20348;SDS011;10332;50.208;18.988;2022-09-09T13:59:17;1.05;;;0.75;;
20348;SDS011;10332;50.208;18.988;2022-09-09T14:01:46;0.90;;;0.73;;
20348;SDS011;10332;50.208;18.988;2022-09-09T14:04:15;0.80;;;0.80;;
20348;SDS011;10332;50.208;18.988;2022-09-09T14:06:43;0.93;;;0.73;;
20348;SDS011;10332;50.208;18.988;2022-09-09T14:09:14;1.20;;;0.82;;
20348;SDS011;10332;50.208;18.988;2022-09-09T14:11:44;11.45;;;10.35;;
20348;SDS011;10332;50.208;18.988;2022-09-09T14:14:12;23.00;;;20.75;;
20348;SDS011;10332;50.208;18.988;2022-09-09T14:16:40;6.88;;;6.15;;
20348;SDS011;10332;50.208;18.988;2022-09-09T14:19:08;2.50;;;2.30;;
20348;SDS011;10332;50.208;18.988;2022-09-09T14:21:36;2.10;;;1.90;;
20348;SDS011;10332;50.208;18.988;2022-09-09T14:24:03;3.10;;;2.13;;
20348;SDS011;10332;50.208;18.988;2022-09-09T14:26:31;1.38;;;1.23;;
20348;SDS011;10332;50.208;18.988;2022-09-09T14:28:58;1.33;;;1.23;;
20348;SDS011;10332;50.208;18.988;2022-09-09T14:31:28;1.77;;;1.48;;
20348;SDS011;10332;50.208;18.988;2022-09-09T14:33:56;1.23;;;1.10;;
20348;SDS011;10332;50.208;18.988;2022-09-09T14:36:23;1.67;;;0.90;;
20348;SDS011;10332;50.208;18.988;2022-09-09T14:38:50;3.53;;;3.20;;
20348;SDS011;10332;50.208;18.988;2022-09-09T14:41:18;5.47;;;4.88;;
20348;SDS011;10332;50.208;18.988;2022-09-09T14:43:49;2.78;;;2.47;;
20348;SDS011;10332;50.208;18.988;2022-09-09T14:46:18;2.33;;;2.10;;
20348;SDS011;10332;50.208;18.988;2022-09-09T14:48:48;2.30;;;2.03;;
20348;SDS011;10332;50.208;18.988;2022-09-09T14:51:20;1.75;;;1.58;;
20348;SDS011;10332;50.208;18.988;2022-09-09T14:53:54;2.55;;;1.48;;
20348;SDS011;10332;50.208;18.988;2022-09-09T14:56:26;1.98;;;1.73;;
20348;SDS011;10332;50.208;18.988;2022-09-09T14:58:58;1.13;;;1.02;;
20348;SDS011;10332;50.208;18.988;2022-09-09T15:01:27;1.50;;;1.33;;
20348;SDS011;10332;50.208;18.988;2022-09-09T15:03:59;1.23;;;1.10;;
20348;SDS011;10332;50.208;18.988;2022-09-09T15:06:31;1.35;;;1.25;;
20348;SDS011;10332;50.208;18.988;2022-09-09T15:09:05;1.50;;;1.10;;
20348;SDS011;10332;50.208;18.988;2022-09-09T15:11:36;1.20;;;0.80;;
20348;SDS011;10332;50.208;18.988;2022-09-09T15:14:05;0.95;;;0.82;;
20348;SDS011;10332;50.208;18.988;2022-09-09T15:16:35;3.20;;;2.05;;
20348;SDS011;10332;50.208;18.988;2022-09-09T15:19:03;30.30;;;26.95;;
20348;SDS011;10332;50.208;18.988;2022-09-09T15:21:32;24.27;;;19.40;;
20348;SDS011;10332;50.208;18.988;2022-09-09T15:24:02;13.73;;;10.52;;
20348;SDS011;10332;50.208;18.988;2022-09-09T15:26:30;7.88;;;5.00;;
20348;SDS011;10332;50.208;18.988;2022-09-09T15:28:58;5.78;;;3.95;;
20348;SDS011;10332;50.208;18.988;2022-09-09T15:31:29;5.55;;;4.15;;
20348;SDS011;10332;50.208;18.988;2022-09-09T15:33:59;4.85;;;3.70;;
20348;SDS011;10332;50.208;18.988;2022-09-09T15:37:03;2.40;;;1.58;;
20348;SDS011;10332;50.208;18.988;2022-09-09T15:39:23;4.57;;;2.50;;
20348;SDS011;10332;50.208;18.988;2022-09-09T15:41:51;4.28;;;2.90;;
20348;SDS011;10332;50.208;18.988;2022-09-09T15:44:18;3.67;;;2.58;;
20348;SDS011;10332;50.208;18.988;2022-09-09T15:46:48;6.60;;;5.18;;
20348;SDS011;10332;50.208;18.988;2022-09-09T15:49:18;12.82;;;10.52;;
20348;SDS011;10332;50.208;18.988;2022-09-09T15:51:54;7.15;;;5.70;;
20348;SDS011;10332;50.208;18.988;2022-09-09T15:54:25;8.75;;;6.22;;
20348;SDS011;10332;50.208;18.988;2022-09-09T15:56:53;11.05;;;9.60;;
20348;SDS011;10332;50.208;18.988;2022-09-09T15:59:24;23.65;;;17.98;;
20348;SDS011;10332;50.208;18.988;2022-09-09T16:01:54;17.83;;;14.63;;
20348;SDS011;10332;50.208;18.988;2022-09-09T16:04:23;10.73;;;9.07;;
20348;SDS011;10332;50.208;18.988;2022-09-09T16:06:55;9.40;;;7.78;;
20348;SDS011;10332;50.208;18.988;2022-09-09T16:09:27;7.10;;;6.40;;
20348;SDS011;10332;50.208;18.988;2022-09-09T16:11:56;5.22;;;4.72;;
20348;SDS011;10332;50.208;18.988;2022-09-09T16:14:28;46.88;;;35.63;;
20348;SDS011;10332;50.208;18.988;2022-09-09T16:17:00;32.85;;;25.92;;
20348;SDS011;10332;50.208;18.988;2022-09-09T16:19:29;25.80;;;21.58;;
20348;SDS011;10332;50.208;18.988;2022-09-09T16:21:57;20.08;;;16.52;;
20348;SDS011;10332;50.208;18.988;2022-09-09T16:24:25;14.20;;;12.32;;
20348;SDS011;10332;50.208;18.988;2022-09-09T16:26:53;11.75;;;8.98;;
20348;SDS011;10332;50.208;18.988;2022-09-09T16:29:22;9.50;;;8.07;;
20348;SDS011;10332;50.208;18.988;2022-09-09T16:31:54;6.97;;;5.88;;
20348;SDS011;10332;50.208;18.988;2022-09-09T16:34:28;5.50;;;4.18;;
20348;SDS011;10332;50.208;18.988;2022-09-09T16:36:56;5.60;;;4.20;;
20348;SDS011;10332;50.208;18.988;2022-09-09T16:39:24;5.00;;;3.90;;
20348;SDS011;10332;50.208;18.988;2022-09-09T16:41:51;7.57;;;4.53;;
20348;SDS011;10332;50.208;18.988;2022-09-09T16:44:19;4.63;;;3.45;;
20348;SDS011;10332;50.208;18.988;2022-09-09T16:46:46;4.82;;;3.50;;
20348;SDS011;10332;50.208;18.988;2022-09-09T16:49:15;22.70;;;17.77;;
20348;SDS011;10332;50.208;18.988;2022-09-09T16:51:44;22.77;;;17.58;;
20348;SDS011;10332;50.208;18.988;2022-09-09T16:54:15;15.00;;;11.38;;
20348;SDS011;10332;50.208;18.988;2022-09-09T16:56:46;18.67;;;11.50;;
20348;SDS011;10332;50.208;18.988;2022-09-09T16:59:15;11.38;;;7.70;;
20348;SDS011;10332;50.208;18.988;2022-09-09T17:01:46;8.88;;;6.47;;
20348;SDS011;10332;50.208;18.988;2022-09-09T17:04:21;7.93;;;5.70;;
20348;SDS011;10332;50.208;18.988;2022-09-09T17:06:53;7.38;;;5.13;;
20348;SDS011;10332;50.208;18.988;2022-09-09T17:09:24;6.68;;;4.40;;
20348;SDS011;10332;50.208;18.988;2022-09-09T17:11:56;5.13;;;3.88;;
20348;SDS011;10332;50.208;18.988;2022-09-09T17:14:23;8.23;;;4.72;;
20348;SDS011;10332;50.208;18.988;2022-09-09T17:16:50;6.70;;;4.72;;
20348;SDS011;10332;50.208;18.988;2022-09-09T17:19:18;5.32;;;3.60;;
20348;SDS011;10332;50.208;18.988;2022-09-09T17:21:46;4.50;;;3.47;;